sensor_id;sensor_type;location;lat;lon;timestamp;P1;durP1;ratioP1;P2;durP2;ratioP2
28028;SDS011;15345;59.364;18.016;2023-11-19T00:01:05;3.22;;;2.70;;
28028;SDS011;15345;59.364;18.016;2023-11-19T00:02:24;2.25;;;2.15;;
28028;SDS011;15345;59.364;18.016;2023-11-19T00:03:43;2.30;;;2.10;;
28028;SDS011;15345;59.364;18.016;2023-11-19T00:05:02;2.03;;;1.92;;
28028;SDS011;15345;59.364;18.016;2023-11-19T00:06:21;2.67;;;2.40;;
28028;SDS011;15345;59.364;18.016;2023-11-19T00:07:40;2.40;;;2.20;;
28028;SDS011;15345;59.364;18.016;2023-11-19T00:09:03;3.70;;;2.63;;
28028;SDS011;15345;59.364;18.016;2023-11-19T00:10:22;2.45;;;2.25;;
28028;SDS011;15345;59.364;18.016;2023-11-19T00:11:41;2.40;;;2.30;;
28028;SDS011;15345;59.364;18.016;2023-11-19T00:13:00;2.30;;;2.20;;
28028;SDS011;15345;59.364;18.016;2023-11-19T00:14:21;2.50;;;2.40;;
28028;SDS011;15345;59.364;18.016;2023-11-19T00:15:40;3.03;;;2.83;;
28028;SDS011;15345;59.364;18.016;2023-11-19T00:16:59;2.92;;;2.42;;
28028;SDS011;15345;59.364;18.016;2023-11-19T00:18:17;2.88;;;2.65;;
28028;SDS011;15345;59.364;18.016;2023-11-19T00:19:36;2.58;;;2.40;;
28028;SDS011;15345;59.364;18.016;2023-11-19T00:20:55;3.03;;;2.10;;
28028;SDS011;15345;59.364;18.016;2023-11-19T00:22:14;2.72;;;2.53;;
28028;SDS011;15345;59.364;18.016;2023-11-19T00:23:33;2.15;;;2.05;;
28028;SDS011;15345;59.364;18.016;2023-11-19T00:24:52;4.47;;;2.80;;
28028;SDS011;15345;59.364;18.016;2023-11-19T00:26:11;2.80;;;2.60;;
28028;SDS011;15345;59.364;18.016;2023-11-19T00:27:32;2.60;;;2.30;;
28028;SDS011;15345;59.364;18.016;2023-11-19T00:28:51;2.65;;;2.50;;
28028;SDS011;15345;59.364;18.016;2023-11-19T00:30:11;2.70;;;2.50;;
28028;SDS011;15345;59.364;18.016;2023-11-19T00:31:31;2.40;;;2.30;;
28028;SDS011;15345;59.364;18.016;2023-11-19T00:32:50;2.58;;;2.30;;
28028;SDS011;15345;59.364;18.016;2023-11-19T00:34:09;3.00;;;2.80;;
28028;SDS011;15345;59.364;18.016;2023-11-19T00:35:27;2.85;;;2.65;;
28028;SDS011;15345;59.364;18.016;2023-11-19T00:36:47;2.58;;;2.40;;
28028;SDS011;15345;59.364;18.016;2023-11-19T00:38:06;2.53;;;2.33;;
28028;SDS011;15345;59.364;18.016;2023-11-19T00:39:25;2.47;;;2.33;;
28028;SDS011;15345;59.364;18.016;2023-11-19T00:40:44;3.63;;;2.58;;
28028;SDS011;15345;59.364;18.016;2023-11-19T00:42:03;2.55;;;2.35;;
28028;SDS011;15345;59.364;18.016;2023-11-19T00:43:22;2.20;;;2.10;;
28028;SDS011;15345;59.364;18.016;2023-11-19T00:44:41;2.50;;;2.40;;
28028;SDS011;15345;59.364;18.016;2023-11-19T00:46:00;3.72;;;2.75;;
28028;SDS011;15345;59.364;18.016;2023-11-19T00:47:19;2.58;;;2.47;;
28028;SDS011;15345;59.364;18.016;2023-11-19T00:48:39;5.07;;;2.30;;
28028;SDS011;15345;59.364;18.016;2023-11-19T00:49:59;3.03;;;2.83;;
28028;SDS011;15345;59.364;18.016;2023-11-19T00:51:17;2.40;;;2.30;;
28028;SDS011;15345;59.364;18.016;2023-11-19T00:52:37;2.60;;;2.50;;
28028;SDS011;15345;59.364;18.016;2023-11-19T00:53:56;2.47;;;2.28;;
28028;SDS011;15345;59.364;18.016;2023-11-19T00:55:15;2.70;;;2.60;;
28028;SDS011;15345;59.364;18.016;2023-11-19T00:56:34;2.58;;;2.47;;
28028;SDS011;15345;59.364;18.016;2023-11-19T00:57:52;2.88;;;2.67;;
28028;SDS011;15345;59.364;18.016;2023-11-19T00:59:11;2.40;;;2.30;;
28028;SDS011;15345;59.364;18.016;2023-11-19T01:00:30;2.75;;;2.58;;
28028;SDS011;15345;59.364;18.016;2023-11-19T01:01:51;2.63;;;2.53;;
28028;SDS011;15345;59.364;18.016;2023-11-19T01:03:10;2.75;;;2.60;;
28028;SDS011;15345;59.364;18.016;2023-11-19T01:04:29;2.75;;;2.55;;
28028;SDS011;15345;59.364;18.016;2023-11-19T01:05:48;3.47;;;2.63;;
28028;SDS011;15345;59.364;18.016;2023-11-19T01:07:07;2.90;;;2.70;;
28028;SDS011;15345;59.364;18.016;2023-11-19T01:08:30;2.72;;;2.63;;
28028;SDS011;15345;59.364;18.016;2023-11-19T01:09:49;2.60;;;2.50;;
28028;SDS011;15345;59.364;18.016;2023-11-19T01:11:18;2.42;;;2.33;;
28028;SDS011;15345;59.364;18.016;2023-11-19T01:12:39;3.15;;;2.85;;
28028;SDS011;15345;59.364;18.016;2023-11-19T01:13:58;3.25;;;2.60;;
28028;SDS011;15345;59.364;18.016;2023-11-19T01:15:16;2.90;;;2.80;;
28028;SDS011;15345;59.364;18.016;2023-11-19T01:16:37;2.42;;;2.33;;
28028;SDS011;15345;59.364;18.016;2023-11-19T01:17:56;2.45;;;2.35;;
28028;SDS011;15345;59.364;18.016;2023-11-19T01:19:15;2.30;;;2.20;;
28028;SDS011;15345;59.364;18.016;2023-11-19T01:20:34;2.20;;;2.00;;
28028;SDS011;15345;59.364;18.016;2023-11-19T01:21:54;2.50;;;2.40;;
28028;SDS011;15345;59.364;18.016;2023-11-19T01:23:13;2.70;;;2.50;;
28028;SDS011;15345;59.364;18.016;2023-11-19T01:24:32;4.03;;;2.55;;
28028;SDS011;15345;59.364;18.016;2023-11-19T01:25:51;2.08;;;1.98;;
28028;SDS011;15345;59.364;18.016;2023-11-19T01:27:10;2.63;;;2.53;;
28028;SDS011;15345;59.364;18.016;2023-11-19T01:28:29;2.47;;;2.28;;
28028;SDS011;15345;59.364;18.016;2023-11-19T01:29:52;3.42;;;2.85;;
28028;SDS011;15345;59.364;18.016;2023-11-19T01:31:11;2.88;;;2.63;;
28028;SDS011;15345;59.364;18.016;2023-11-19T01:32:31;2.15;;;2.05;;
28028;SDS011;15345;59.364;18.016;2023-11-19T01:33:50;2.70;;;2.60;;
28028;SDS011;15345;59.364;18.016;2023-11-19T01:35:09;2.53;;;2.42;;
28028;SDS011;15345;59.364;18.016;2023-11-19T01:36:28;3.00;;;2.80;;
28028;SDS011;15345;59.364;18.016;2023-11-19T01:37:47;2.58;;;2.47;;
28028;SDS011;15345;59.364;18.016;2023-11-19T01:39:06;2.00;;;1.90;;
28028;SDS011;15345;59.364;18.016;2023-11-19T01:40:25;2.08;;;1.90;;
28028;SDS011;15345;59.364;18.016;2023-11-19T01:41:44;3.22;;;2.15;;
28028;SDS011;15345;59.364;18.016;2023-11-19T01:43:03;2.25;;;2.15;;
28028;SDS011;15345;59.364;18.016;2023-11-19T01:44:22;2.40;;;2.03;;
28028;SDS011;15345;59.364;18.016;2023-11-19T01:45:43;2.78;;;2.58;;
28028;SDS011;15345;59.364;18.016;2023-11-19T01:47:02;2.67;;;2.47;;
28028;SDS011;15345;59.364;18.016;2023-11-19T01:48:21;2.88;;;2.67;;
28028;SDS011;15345;59.364;18.016;2023-11-19T01:49:39;2.90;;;2.60;;
28028;SDS011;15345;59.364;18.016;2023-11-19T01:50:58;2.67;;;2.50;;
28028;SDS011;15345;59.364;18.016;2023-11-19T01:52:18;2.70;;;2.20;;
28028;SDS011;15345;59.364;18.016;2023-11-19T01:53:38;3.00;;;2.80;;
28028;SDS011;15345;59.364;18.016;2023-11-19T01:54:58;2.63;;;2.42;;
28028;SDS011;15345;59.364;18.016;2023-11-19T01:56:17;3.75;;;2.30;;
28028;SDS011;15345;59.364;18.016;2023-11-19T01:57:36;7.57;;;2.35;;
28028;SDS011;15345;59.364;18.016;2023-11-19T01:58:59;2.45;;;2.35;;
28028;SDS011;15345;59.364;18.016;2023-11-19T02:00:19;2.50;;;2.40;;
28028;SDS011;15345;59.364;18.016;2023-11-19T02:01:38;2.50;;;2.30;;
28028;SDS011;15345;59.364;18.016;2023-11-19T02:02:58;2.78;;;2.63;;
28028;SDS011;15345;59.364;18.016;2023-11-19T02:04:16;2.50;;;2.40;;
28028;SDS011;15345;59.364;18.016;2023-11-19T02:05:35;2.50;;;2.40;;
28028;SDS011;15345;59.364;18.016;2023-11-19T02:06:55;2.78;;;2.58;;
28028;SDS011;15345;59.364;18.016;2023-11-19T02:08:15;2.75;;;2.55;;
28028;SDS011;15345;59.364;18.016;2023-11-19T02:09:34;3.10;;;2.45;;
28028;SDS011;15345;59.364;18.016;2023-11-19T02:10:53;2.88;;;2.78;;
28028;SDS011;15345;59.364;18.016;2023-11-19T02:12:16;2.92;;;2.72;;
28028;SDS011;15345;59.364;18.016;2023-11-19T02:13:35;2.75;;;2.63;;
28028;SDS011;15345;59.364;18.016;2023-11-19T02:14:56;3.22;;;2.67;;
28028;SDS011;15345;59.364;18.016;2023-11-19T02:16:15;2.58;;;2.47;;
28028;SDS011;15345;59.364;18.016;2023-11-19T02:17:33;2.50;;;2.40;;
28028;SDS011;15345;59.364;18.016;2023-11-19T02:18:59;2.83;;;2.63;;
28028;SDS011;15345;59.364;18.016;2023-11-19T02:20:18;2.65;;;2.55;;
28028;SDS011;15345;59.364;18.016;2023-11-19T02:21:38;2.25;;;2.15;;
28028;SDS011;15345;59.364;18.016;2023-11-19T02:22:57;2.55;;;2.45;;
28028;SDS011;15345;59.364;18.016;2023-11-19T02:24:16;3.28;;;2.15;;
28028;SDS011;15345;59.364;18.016;2023-11-19T02:25:36;3.63;;;2.42;;
28028;SDS011;15345;59.364;18.016;2023-11-19T02:27:07;2.50;;;2.40;;
28028;SDS011;15345;59.364;18.016;2023-11-19T02:28:29;3.10;;;2.30;;
28028;SDS011;15345;59.364;18.016;2023-11-19T02:29:48;2.38;;;2.25;;
28028;SDS011;15345;59.364;18.016;2023-11-19T02:31:07;2.15;;;2.03;;
28028;SDS011;15345;59.364;18.016;2023-11-19T02:32:29;3.08;;;2.88;;
28028;SDS011;15345;59.364;18.016;2023-11-19T02:33:49;2.95;;;2.75;;
28028;SDS011;15345;59.364;18.016;2023-11-19T02:35:09;2.60;;;2.40;;
28028;SDS011;15345;59.364;18.016;2023-11-19T02:36:28;2.58;;;2.38;;
28028;SDS011;15345;59.364;18.016;2023-11-19T02:37:47;3.25;;;2.35;;
28028;SDS011;15345;59.364;18.016;2023-11-19T02:39:06;2.55;;;2.40;;
28028;SDS011;15345;59.364;18.016;2023-11-19T02:40:29;2.42;;;2.33;;
28028;SDS011;15345;59.364;18.016;2023-11-19T02:41:47;2.65;;;2.45;;
28028;SDS011;15345;59.364;18.016;2023-11-19T02:43:09;2.72;;;2.53;;
28028;SDS011;15345;59.364;18.016;2023-11-19T02:44:28;2.40;;;2.30;;
28028;SDS011;15345;59.364;18.016;2023-11-19T02:45:49;2.20;;;2.10;;
28028;SDS011;15345;59.364;18.016;2023-11-19T02:47:09;2.55;;;2.25;;
28028;SDS011;15345;59.364;18.016;2023-11-19T02:48:28;2.10;;;2.00;;
28028;SDS011;15345;59.364;18.016;2023-11-19T02:49:47;2.47;;;2.38;;
28028;SDS011;15345;59.364;18.016;2023-11-19T02:51:06;2.35;;;2.15;;
28028;SDS011;15345;59.364;18.016;2023-11-19T02:52:28;2.50;;;2.40;;
28028;SDS011;15345;59.364;18.016;2023-11-19T02:53:47;2.75;;;2.55;;
28028;SDS011;15345;59.364;18.016;2023-11-19T02:55:07;2.92;;;2.72;;
28028;SDS011;15345;59.364;18.016;2023-11-19T02:56:31;2.65;;;2.53;;
28028;SDS011;15345;59.364;18.016;2023-11-19T02:59:14;2.72;;;2.53;;
28028;SDS011;15345;59.364;18.016;2023-11-19T03:00:46;2.75;;;2.55;;
28028;SDS011;15345;59.364;18.016;2023-11-19T03:02:15;2.50;;;2.40;;
28028;SDS011;15345;59.364;18.016;2023-11-19T03:03:36;2.65;;;2.55;;
28028;SDS011;15345;59.364;18.016;2023-11-19T03:06:18;2.92;;;2.80;;
28028;SDS011;15345;59.364;18.016;2023-11-19T03:07:37;3.03;;;2.83;;
28028;SDS011;15345;59.364;18.016;2023-11-19T03:08:56;2.80;;;2.60;;
28028;SDS011;15345;59.364;18.016;2023-11-19T03:10:16;3.00;;;2.80;;
28028;SDS011;15345;59.364;18.016;2023-11-19T03:11:35;3.00;;;2.83;;
28028;SDS011;15345;59.364;18.016;2023-11-19T03:12:53;3.55;;;2.95;;
28028;SDS011;15345;59.364;18.016;2023-11-19T03:14:14;4.70;;;2.80;;
28028;SDS011;15345;59.364;18.016;2023-11-19T03:15:33;2.63;;;2.53;;
28028;SDS011;15345;59.364;18.016;2023-11-19T03:16:52;3.72;;;2.90;;
28028;SDS011;15345;59.364;18.016;2023-11-19T03:18:11;2.88;;;2.67;;
28028;SDS011;15345;59.364;18.016;2023-11-19T03:19:30;2.95;;;2.75;;
28028;SDS011;15345;59.364;18.016;2023-11-19T03:20:48;2.83;;;2.65;;
28028;SDS011;15345;59.364;18.016;2023-11-19T03:22:08;2.75;;;2.55;;
28028;SDS011;15345;59.364;18.016;2023-11-19T03:23:29;2.65;;;2.50;;
28028;SDS011;15345;59.364;18.016;2023-11-19T03:24:53;3.10;;;2.90;;
28028;SDS011;15345;59.364;18.016;2023-11-19T03:26:11;2.45;;;2.35;;
28028;SDS011;15345;59.364;18.016;2023-11-19T03:27:31;3.10;;;2.90;;
28028;SDS011;15345;59.364;18.016;2023-11-19T03:28:50;3.10;;;2.90;;
28028;SDS011;15345;59.364;18.016;2023-11-19T03:30:09;3.00;;;2.90;;
28028;SDS011;15345;59.364;18.016;2023-11-19T03:31:29;3.30;;;2.90;;
28028;SDS011;15345;59.364;18.016;2023-11-19T03:32:47;4.22;;;3.05;;
28028;SDS011;15345;59.364;18.016;2023-11-19T03:34:06;3.15;;;2.95;;
28028;SDS011;15345;59.364;18.016;2023-11-19T03:35:26;3.10;;;2.90;;
28028;SDS011;15345;59.364;18.016;2023-11-19T03:36:46;3.40;;;3.20;;
28028;SDS011;15345;59.364;18.016;2023-11-19T03:38:05;3.78;;;3.47;;
28028;SDS011;15345;59.364;18.016;2023-11-19T03:39:24;4.80;;;3.65;;
28028;SDS011;15345;59.364;18.016;2023-11-19T03:40:44;3.28;;;3.08;;
28028;SDS011;15345;59.364;18.016;2023-11-19T03:42:03;3.80;;;3.58;;
28028;SDS011;15345;59.364;18.016;2023-11-19T03:43:22;3.90;;;3.70;;
28028;SDS011;15345;59.364;18.016;2023-11-19T03:44:41;3.72;;;3.47;;
28028;SDS011;15345;59.364;18.016;2023-11-19T03:46:00;3.85;;;3.65;;
28028;SDS011;15345;59.364;18.016;2023-11-19T03:47:19;3.70;;;3.50;;
28028;SDS011;15345;59.364;18.016;2023-11-19T03:48:38;3.67;;;3.47;;
28028;SDS011;15345;59.364;18.016;2023-11-19T03:49:58;4.38;;;4.07;;
28028;SDS011;15345;59.364;18.016;2023-11-19T03:51:17;3.50;;;3.30;;
28028;SDS011;15345;59.364;18.016;2023-11-19T03:52:36;3.92;;;3.70;;
28028;SDS011;15345;59.364;18.016;2023-11-19T03:53:55;4.63;;;3.83;;
28028;SDS011;15345;59.364;18.016;2023-11-19T03:55:14;4.10;;;3.80;;
28028;SDS011;15345;59.364;18.016;2023-11-19T03:56:33;3.92;;;3.63;;
28028;SDS011;15345;59.364;18.016;2023-11-19T03:57:52;3.40;;;3.20;;
28028;SDS011;15345;59.364;18.016;2023-11-19T03:59:11;3.80;;;3.53;;
28028;SDS011;15345;59.364;18.016;2023-11-19T04:00:30;4.10;;;3.80;;
28028;SDS011;15345;59.364;18.016;2023-11-19T04:01:49;4.00;;;3.80;;
28028;SDS011;15345;59.364;18.016;2023-11-19T04:03:09;4.35;;;3.95;;
28028;SDS011;15345;59.364;18.016;2023-11-19T04:04:28;5.00;;;3.60;;
28028;SDS011;15345;59.364;18.016;2023-11-19T04:05:51;4.47;;;4.28;;
28028;SDS011;15345;59.364;18.016;2023-11-19T04:07:09;5.30;;;3.97;;
28028;SDS011;15345;59.364;18.016;2023-11-19T04:08:28;4.07;;;3.88;;
28028;SDS011;15345;59.364;18.016;2023-11-19T04:09:48;3.58;;;3.38;;
28028;SDS011;15345;59.364;18.016;2023-11-19T04:11:07;3.97;;;3.65;;
28028;SDS011;15345;59.364;18.016;2023-11-19T04:12:27;4.35;;;4.10;;
28028;SDS011;15345;59.364;18.016;2023-11-19T04:13:46;4.20;;;3.90;;
28028;SDS011;15345;59.364;18.016;2023-11-19T04:15:05;4.03;;;3.72;;
28028;SDS011;15345;59.364;18.016;2023-11-19T04:16:27;4.10;;;3.90;;
28028;SDS011;15345;59.364;18.016;2023-11-19T04:17:47;4.10;;;3.80;;
28028;SDS011;15345;59.364;18.016;2023-11-19T04:19:06;3.65;;;3.40;;
28028;SDS011;15345;59.364;18.016;2023-11-19T04:20:25;3.95;;;3.65;;
28028;SDS011;15345;59.364;18.016;2023-11-19T04:21:44;3.45;;;3.22;;
28028;SDS011;15345;59.364;18.016;2023-11-19T04:23:02;3.80;;;3.40;;
28028;SDS011;15345;59.364;18.016;2023-11-19T04:24:22;4.03;;;3.63;;
28028;SDS011;15345;59.364;18.016;2023-11-19T04:25:40;3.60;;;3.40;;
28028;SDS011;15345;59.364;18.016;2023-11-19T04:26:59;4.10;;;3.80;;
28028;SDS011;15345;59.364;18.016;2023-11-19T04:28:18;3.58;;;3.38;;
28028;SDS011;15345;59.364;18.016;2023-11-19T04:29:37;4.00;;;3.70;;
28028;SDS011;15345;59.364;18.016;2023-11-19T04:30:56;4.22;;;3.83;;
28028;SDS011;15345;59.364;18.016;2023-11-19T04:32:15;3.58;;;3.38;;
28028;SDS011;15345;59.364;18.016;2023-11-19T04:33:34;3.65;;;3.40;;
28028;SDS011;15345;59.364;18.016;2023-11-19T04:34:53;4.20;;;3.90;;
28028;SDS011;15345;59.364;18.016;2023-11-19T04:36:12;3.63;;;3.42;;
28028;SDS011;15345;59.364;18.016;2023-11-19T04:37:33;3.63;;;3.42;;
28028;SDS011;15345;59.364;18.016;2023-11-19T04:38:53;4.07;;;3.88;;
28028;SDS011;15345;59.364;18.016;2023-11-19T04:40:12;3.75;;;3.53;;
28028;SDS011;15345;59.364;18.016;2023-11-19T04:41:31;3.80;;;3.50;;
28028;SDS011;15345;59.364;18.016;2023-11-19T04:42:50;3.78;;;3.47;;
28028;SDS011;15345;59.364;18.016;2023-11-19T04:44:09;4.10;;;3.70;;
28028;SDS011;15345;59.364;18.016;2023-11-19T04:45:28;4.28;;;4.07;;
28028;SDS011;15345;59.364;18.016;2023-11-19T04:46:47;3.72;;;3.47;;
28028;SDS011;15345;59.364;18.016;2023-11-19T04:48:05;3.63;;;3.42;;
28028;SDS011;15345;59.364;18.016;2023-11-19T04:49:24;3.55;;;3.35;;
28028;SDS011;15345;59.364;18.016;2023-11-19T04:50:45;3.75;;;3.45;;
28028;SDS011;15345;59.364;18.016;2023-11-19T04:52:04;3.88;;;3.67;;
28028;SDS011;15345;59.364;18.016;2023-11-19T04:53:23;3.35;;;3.10;;
28028;SDS011;15345;59.364;18.016;2023-11-19T04:54:42;3.88;;;3.63;;
28028;SDS011;15345;59.364;18.016;2023-11-19T04:56:08;4.07;;;3.85;;
28028;SDS011;15345;59.364;18.016;2023-11-19T04:58:46;4.00;;;3.80;;
28028;SDS011;15345;59.364;18.016;2023-11-19T05:00:05;4.07;;;3.50;;
28028;SDS011;15345;59.364;18.016;2023-11-19T05:01:25;4.00;;;3.80;;
28028;SDS011;15345;59.364;18.016;2023-11-19T05:02:44;3.20;;;3.00;;
28028;SDS011;15345;59.364;18.016;2023-11-19T05:04:04;3.78;;;3.55;;
28028;SDS011;15345;59.364;18.016;2023-11-19T05:05:22;4.20;;;3.80;;
28028;SDS011;15345;59.364;18.016;2023-11-19T05:06:41;4.18;;;3.45;;
28028;SDS011;15345;59.364;18.016;2023-11-19T05:08:00;3.85;;;3.60;;
28028;SDS011;15345;59.364;18.016;2023-11-19T05:09:20;3.58;;;3.35;;
28028;SDS011;15345;59.364;18.016;2023-11-19T05:10:39;3.78;;;3.50;;
28028;SDS011;15345;59.364;18.016;2023-11-19T05:11:58;3.55;;;3.25;;
28028;SDS011;15345;59.364;18.016;2023-11-19T05:13:17;3.75;;;3.45;;
28028;SDS011;15345;59.364;18.016;2023-11-19T05:14:36;3.80;;;3.50;;
28028;SDS011;15345;59.364;18.016;2023-11-19T05:15:55;3.75;;;3.45;;
28028;SDS011;15345;59.364;18.016;2023-11-19T05:17:14;3.40;;;3.10;;
28028;SDS011;15345;59.364;18.016;2023-11-19T05:18:32;5.90;;;3.47;;
28028;SDS011;15345;59.364;18.016;2023-11-19T05:19:51;3.55;;;3.30;;
28028;SDS011;15345;59.364;18.016;2023-11-19T05:21:10;3.90;;;3.63;;
28028;SDS011;15345;59.364;18.016;2023-11-19T05:22:29;3.92;;;3.65;;
28028;SDS011;15345;59.364;18.016;2023-11-19T05:23:48;4.25;;;3.95;;
28028;SDS011;15345;59.364;18.016;2023-11-19T05:25:07;3.65;;;3.42;;
28028;SDS011;15345;59.364;18.016;2023-11-19T05:26:27;3.47;;;3.28;;
28028;SDS011;15345;59.364;18.016;2023-11-19T05:27:46;4.40;;;3.58;;
28028;SDS011;15345;59.364;18.016;2023-11-19T05:29:05;3.53;;;3.33;;
28028;SDS011;15345;59.364;18.016;2023-11-19T05:30:24;3.67;;;3.47;;
28028;SDS011;15345;59.364;18.016;2023-11-19T05:31:43;7.75;;;3.80;;
28028;SDS011;15345;59.364;18.016;2023-11-19T05:33:02;4.20;;;3.80;;
28028;SDS011;15345;59.364;18.016;2023-11-19T05:34:21;3.90;;;3.60;;
28028;SDS011;15345;59.364;18.016;2023-11-19T05:35:40;5.25;;;3.80;;
28028;SDS011;15345;59.364;18.016;2023-11-19T05:36:59;4.15;;;3.75;;
28028;SDS011;15345;59.364;18.016;2023-11-19T05:38:18;3.75;;;3.45;;
28028;SDS011;15345;59.364;18.016;2023-11-19T05:39:37;3.35;;;3.15;;
28028;SDS011;15345;59.364;18.016;2023-11-19T05:40:56;4.30;;;3.58;;
28028;SDS011;15345;59.364;18.016;2023-11-19T05:42:15;3.40;;;3.20;;
28028;SDS011;15345;59.364;18.016;2023-11-19T05:43:37;3.65;;;3.38;;
28028;SDS011;15345;59.364;18.016;2023-11-19T05:44:59;3.88;;;3.53;;
28028;SDS011;15345;59.364;18.016;2023-11-19T05:46:17;4.20;;;3.90;;
28028;SDS011;15345;59.364;18.016;2023-11-19T05:47:36;4.10;;;3.80;;
28028;SDS011;15345;59.364;18.016;2023-11-19T05:48:55;3.95;;;3.60;;
28028;SDS011;15345;59.364;18.016;2023-11-19T05:50:15;6.25;;;3.90;;
28028;SDS011;15345;59.364;18.016;2023-11-19T05:51:37;3.75;;;3.45;;
28028;SDS011;15345;59.364;18.016;2023-11-19T05:52:57;4.30;;;4.00;;
28028;SDS011;15345;59.364;18.016;2023-11-19T05:54:16;4.03;;;3.83;;
28028;SDS011;15345;59.364;18.016;2023-11-19T05:55:36;4.53;;;4.13;;
28028;SDS011;15345;59.364;18.016;2023-11-19T05:56:56;4.90;;;4.45;;
28028;SDS011;15345;59.364;18.016;2023-11-19T05:58:16;3.65;;;3.45;;
28028;SDS011;15345;59.364;18.016;2023-11-19T05:59:36;4.38;;;3.67;;
28028;SDS011;15345;59.364;18.016;2023-11-19T06:00:55;4.47;;;4.18;;
28028;SDS011;15345;59.364;18.016;2023-11-19T06:02:14;4.65;;;3.72;;
28028;SDS011;15345;59.364;18.016;2023-11-19T06:03:33;4.80;;;4.50;;
28028;SDS011;15345;59.364;18.016;2023-11-19T06:04:52;3.92;;;3.63;;
28028;SDS011;15345;59.364;18.016;2023-11-19T06:06:12;3.90;;;3.65;;
28028;SDS011;15345;59.364;18.016;2023-11-19T06:07:31;4.57;;;4.28;;
28028;SDS011;15345;59.364;18.016;2023-11-19T06:08:50;4.90;;;4.60;;
28028;SDS011;15345;59.364;18.016;2023-11-19T06:10:10;4.88;;;4.55;;
28028;SDS011;15345;59.364;18.016;2023-11-19T06:11:29;4.85;;;4.45;;
28028;SDS011;15345;59.364;18.016;2023-11-19T06:12:48;5.03;;;4.55;;
28028;SDS011;15345;59.364;18.016;2023-11-19T06:14:14;4.80;;;4.50;;
28028;SDS011;15345;59.364;18.016;2023-11-19T06:15:33;4.68;;;4.38;;
28028;SDS011;15345;59.364;18.016;2023-11-19T06:16:52;5.40;;;4.40;;
28028;SDS011;15345;59.364;18.016;2023-11-19T06:18:11;4.50;;;4.20;;
28028;SDS011;15345;59.364;18.016;2023-11-19T06:19:30;4.88;;;4.40;;
28028;SDS011;15345;59.364;18.016;2023-11-19T06:20:49;4.57;;;4.28;;
28028;SDS011;15345;59.364;18.016;2023-11-19T06:22:08;4.68;;;4.38;;
28028;SDS011;15345;59.364;18.016;2023-11-19T06:23:27;4.63;;;4.32;;
28028;SDS011;15345;59.364;18.016;2023-11-19T06:24:46;4.65;;;4.35;;
28028;SDS011;15345;59.364;18.016;2023-11-19T06:26:06;5.30;;;4.72;;
28028;SDS011;15345;59.364;18.016;2023-11-19T06:27:25;4.68;;;4.28;;
28028;SDS011;15345;59.364;18.016;2023-11-19T06:28:43;4.82;;;4.53;;
28028;SDS011;15345;59.364;18.016;2023-11-19T06:30:03;4.70;;;4.32;;
28028;SDS011;15345;59.364;18.016;2023-11-19T06:31:22;4.97;;;4.18;;
28028;SDS011;15345;59.364;18.016;2023-11-19T06:32:41;5.68;;;4.25;;
28028;SDS011;15345;59.364;18.016;2023-11-19T06:34:00;5.50;;;4.50;;
28028;SDS011;15345;59.364;18.016;2023-11-19T06:35:19;4.97;;;4.35;;
28028;SDS011;15345;59.364;18.016;2023-11-19T06:36:38;9.20;;;4.38;;
28028;SDS011;15345;59.364;18.016;2023-11-19T06:37:57;8.75;;;4.32;;
28028;SDS011;15345;59.364;18.016;2023-11-19T06:39:17;8.77;;;4.32;;
28028;SDS011;15345;59.364;18.016;2023-11-19T06:40:36;4.55;;;4.15;;
28028;SDS011;15345;59.364;18.016;2023-11-19T06:41:55;5.07;;;3.92;;
28028;SDS011;15345;59.364;18.016;2023-11-19T06:43:15;6.43;;;4.32;;
28028;SDS011;15345;59.364;18.016;2023-11-19T06:44:33;3.58;;;3.38;;
28028;SDS011;15345;59.364;18.016;2023-11-19T06:45:56;4.93;;;4.40;;
28028;SDS011;15345;59.364;18.016;2023-11-19T06:47:15;5.07;;;3.97;;
28028;SDS011;15345;59.364;18.016;2023-11-19T06:48:34;4.28;;;3.88;;
28028;SDS011;15345;59.364;18.016;2023-11-19T06:49:56;4.38;;;3.90;;
28028;SDS011;15345;59.364;18.016;2023-11-19T06:51:15;3.73;;;3.53;;
28028;SDS011;15345;59.364;18.016;2023-11-19T06:52:34;5.10;;;3.97;;
28028;SDS011;15345;59.364;18.016;2023-11-19T06:53:53;4.18;;;3.53;;
28028;SDS011;15345;59.364;18.016;2023-11-19T06:55:12;4.38;;;3.97;;
28028;SDS011;15345;59.364;18.016;2023-11-19T06:56:31;4.55;;;4.25;;
28028;SDS011;15345;59.364;18.016;2023-11-19T06:57:50;7.47;;;4.20;;
28028;SDS011;15345;59.364;18.016;2023-11-19T06:59:09;5.88;;;4.28;;
28028;SDS011;15345;59.364;18.016;2023-11-19T07:00:28;4.18;;;3.90;;
28028;SDS011;15345;59.364;18.016;2023-11-19T07:01:48;4.47;;;4.07;;
28028;SDS011;15345;59.364;18.016;2023-11-19T07:03:07;4.70;;;4.25;;
28028;SDS011;15345;59.364;18.016;2023-11-19T07:04:27;5.00;;;4.13;;
28028;SDS011;15345;59.364;18.016;2023-11-19T07:05:46;5.20;;;4.35;;
28028;SDS011;15345;59.364;18.016;2023-11-19T07:07:05;5.25;;;4.70;;
28028;SDS011;15345;59.364;18.016;2023-11-19T07:08:25;6.30;;;4.55;;
28028;SDS011;15345;59.364;18.016;2023-11-19T07:09:45;5.80;;;4.18;;
28028;SDS011;15345;59.364;18.016;2023-11-19T07:11:04;8.00;;;4.30;;
28028;SDS011;15345;59.364;18.016;2023-11-19T07:12:23;6.20;;;4.22;;
28028;SDS011;15345;59.364;18.016;2023-11-19T07:13:45;8.63;;;4.47;;
28028;SDS011;15345;59.364;18.016;2023-11-19T07:15:05;4.68;;;4.32;;
28028;SDS011;15345;59.364;18.016;2023-11-19T07:16:24;5.38;;;4.70;;
28028;SDS011;15345;59.364;18.016;2023-11-19T07:17:43;4.70;;;4.30;;
28028;SDS011;15345;59.364;18.016;2023-11-19T07:19:03;6.30;;;4.78;;
28028;SDS011;15345;59.364;18.016;2023-11-19T07:20:23;5.10;;;4.60;;
28028;SDS011;15345;59.364;18.016;2023-11-19T07:21:43;6.85;;;5.00;;
28028;SDS011;15345;59.364;18.016;2023-11-19T07:23:03;6.32;;;4.57;;
28028;SDS011;15345;59.364;18.016;2023-11-19T07:24:22;5.03;;;4.57;;
28028;SDS011;15345;59.364;18.016;2023-11-19T07:25:41;5.20;;;4.80;;
28028;SDS011;15345;59.364;18.016;2023-11-19T07:27:00;4.63;;;4.22;;
28028;SDS011;15345;59.364;18.016;2023-11-19T07:28:21;5.82;;;4.82;;
28028;SDS011;15345;59.364;18.016;2023-11-19T07:29:42;6.35;;;4.68;;
28028;SDS011;15345;59.364;18.016;2023-11-19T07:31:01;5.63;;;5.13;;
28028;SDS011;15345;59.364;18.016;2023-11-19T07:32:20;8.70;;;4.88;;
28028;SDS011;15345;59.364;18.016;2023-11-19T07:33:39;8.02;;;4.78;;
28028;SDS011;15345;59.364;18.016;2023-11-19T07:34:58;8.68;;;5.00;;
28028;SDS011;15345;59.364;18.016;2023-11-19T07:36:17;5.65;;;4.38;;
28028;SDS011;15345;59.364;18.016;2023-11-19T07:37:36;5.90;;;4.60;;
28028;SDS011;15345;59.364;18.016;2023-11-19T07:38:55;4.70;;;4.30;;
28028;SDS011;15345;59.364;18.016;2023-11-19T07:40:16;7.55;;;5.10;;
28028;SDS011;15345;59.364;18.016;2023-11-19T07:41:35;5.22;;;4.50;;
28028;SDS011;15345;59.364;18.016;2023-11-19T07:42:54;4.85;;;4.45;;
28028;SDS011;15345;59.364;18.016;2023-11-19T07:44:13;4.93;;;4.45;;
28028;SDS011;15345;59.364;18.016;2023-11-19T07:45:32;4.93;;;4.43;;
28028;SDS011;15345;59.364;18.016;2023-11-19T07:46:51;5.55;;;4.95;;
28028;SDS011;15345;59.364;18.016;2023-11-19T07:48:10;7.18;;;4.93;;
28028;SDS011;15345;59.364;18.016;2023-11-19T07:49:31;5.05;;;4.65;;
28028;SDS011;15345;59.364;18.016;2023-11-19T07:50:50;5.78;;;5.03;;
28028;SDS011;15345;59.364;18.016;2023-11-19T07:52:09;6.43;;;5.13;;
28028;SDS011;15345;59.364;18.016;2023-11-19T07:53:28;5.13;;;4.72;;
28028;SDS011;15345;59.364;18.016;2023-11-19T07:54:47;5.13;;;4.43;;
28028;SDS011;15345;59.364;18.016;2023-11-19T07:56:07;5.40;;;4.90;;